sensor_id;sensor_type;location;lat;lon;timestamp;P1;durP1;ratioP1;P2;durP2;ratioP2
10061;SDS011;5070;52.382;5.270;2022-08-19T00:01:57;6.68;;;3.47;;
10061;SDS011;5070;52.382;5.270;2022-08-19T00:04:26;7.38;;;3.20;;
10061;SDS011;5070;52.382;5.270;2022-08-19T00:06:58;3.22;;;2.60;;
10061;SDS011;5070;52.382;5.270;2022-08-19T00:09:27;5.15;;;3.88;;
10061;SDS011;5070;52.382;5.270;2022-08-19T00:11:55;6.30;;;2.92;;
10061;SDS011;5070;52.382;5.270;2022-08-19T00:14:24;5.20;;;3.00;;
10061;SDS011;5070;52.382;5.270;2022-08-19T00:16:54;7.28;;;3.83;;
10061;SDS011;5070;52.382;5.270;2022-08-19T00:19:24;3.63;;;2.88;;
10061;SDS011;5070;52.382;5.270;2022-08-19T00:21:52;4.63;;;3.00;;
10061;SDS011;5070;52.382;5.270;2022-08-19T00:24:24;4.40;;;3.15;;
10061;SDS011;5070;52.382;5.270;2022-08-19T00:26:52;5.47;;;4.68;;
10061;SDS011;5070;52.382;5.270;2022-08-19T00:29:23;3.88;;;2.63;;
10061;SDS011;5070;52.382;5.270;2022-08-19T00:31:54;6.75;;;4.70;;
10061;SDS011;5070;52.382;5.270;2022-08-19T00:34:27;4.75;;;4.45;;
10061;SDS011;5070;52.382;5.270;2022-08-19T00:36:56;6.20;;;3.72;;
10061;SDS011;5070;52.382;5.270;2022-08-19T00:39:25;5.28;;;4.38;;
10061;SDS011;5070;52.382;5.270;2022-08-19T00:41:53;5.00;;;3.92;;
10061;SDS011;5070;52.382;5.270;2022-08-19T00:44:23;6.70;;;2.83;;
10061;SDS011;5070;52.382;5.270;2022-08-19T00:46:55;3.38;;;2.20;;
10061;SDS011;5070;52.382;5.270;2022-08-19T00:49:29;5.00;;;3.15;;
10061;SDS011;5070;52.382;5.270;2022-08-19T00:52:03;6.38;;;4.45;;
10061;SDS011;5070;52.382;5.270;2022-08-19T00:54:37;6.70;;;3.67;;
10061;SDS011;5070;52.382;5.270;2022-08-19T00:57:18;3.53;;;3.25;;
10061;SDS011;5070;52.382;5.270;2022-08-19T00:59:52;4.50;;;2.95;;
10061;SDS011;5070;52.382;5.270;2022-08-19T01:02:29;8.07;;;4.75;;
10061;SDS011;5070;52.382;5.270;2022-08-19T01:04:59;5.20;;;4.90;;
10061;SDS011;5070;52.382;5.270;2022-08-19T01:07:28;3.90;;;3.72;;
10061;SDS011;5070;52.382;5.270;2022-08-19T01:10:03;3.50;;;3.35;;
10061;SDS011;5070;52.382;5.270;2022-08-19T01:12:33;5.00;;;4.72;;
10061;SDS011;5070;52.382;5.270;2022-08-19T01:15:02;5.55;;;4.65;;
10061;SDS011;5070;52.382;5.270;2022-08-19T01:17:30;6.13;;;3.63;;
10061;SDS011;5070;52.382;5.270;2022-08-19T01:20:00;6.93;;;3.63;;
10061;SDS011;5070;52.382;5.270;2022-08-19T01:22:29;5.38;;;5.07;;
10061;SDS011;5070;52.382;5.270;2022-08-19T01:24:59;10.13;;;5.25;;
10061;SDS011;5070;52.382;5.270;2022-08-19T01:27:40;8.02;;;6.07;;
10061;SDS011;5070;52.382;5.270;2022-08-19T01:30:11;4.35;;;3.58;;
10061;SDS011;5070;52.382;5.270;2022-08-19T01:32:40;6.93;;;3.63;;
10061;SDS011;5070;52.382;5.270;2022-08-19T01:35:09;5.75;;;5.15;;
10061;SDS011;5070;52.382;5.270;2022-08-19T01:37:46;5.00;;;3.35;;
10061;SDS011;5070;52.382;5.270;2022-08-19T01:40:16;3.38;;;3.17;;
10061;SDS011;5070;52.382;5.270;2022-08-19T01:42:46;4.80;;;2.60;;
10061;SDS011;5070;52.382;5.270;2022-08-19T01:45:15;4.97;;;4.68;;
10061;SDS011;5070;52.382;5.270;2022-08-19T01:47:47;7.15;;;4.70;;
10061;SDS011;5070;52.382;5.270;2022-08-19T01:50:27;4.75;;;3.58;;
10061;SDS011;5070;52.382;5.270;2022-08-19T01:52:59;4.72;;;3.15;;
10061;SDS011;5070;52.382;5.270;2022-08-19T01:55:33;10.90;;;3.53;;
10061;SDS011;5070;52.382;5.270;2022-08-19T01:58:08;6.63;;;4.95;;
10061;SDS011;5070;52.382;5.270;2022-08-19T02:00:38;4.07;;;3.30;;
10061;SDS011;5070;52.382;5.270;2022-08-19T02:03:06;5.30;;;4.10;;
10061;SDS011;5070;52.382;5.270;2022-08-19T02:05:35;3.70;;;3.38;;
10061;SDS011;5070;52.382;5.270;2022-08-19T02:08:04;6.10;;;5.22;;
10061;SDS011;5070;52.382;5.270;2022-08-19T02:10:33;6.22;;;4.97;;
10061;SDS011;5070;52.382;5.270;2022-08-19T02:13:01;3.65;;;3.45;;
10061;SDS011;5070;52.382;5.270;2022-08-19T02:15:29;4.90;;;4.00;;
10061;SDS011;5070;52.382;5.270;2022-08-19T02:17:59;3.55;;;3.33;;
10061;SDS011;5070;52.382;5.270;2022-08-19T02:20:27;11.23;;;3.92;;
10061;SDS011;5070;52.382;5.270;2022-08-19T02:22:55;7.38;;;3.67;;
10061;SDS011;5070;52.382;5.270;2022-08-19T02:25:28;15.02;;;5.53;;
10061;SDS011;5070;52.382;5.270;2022-08-19T02:27:58;7.53;;;4.88;;
10061;SDS011;5070;52.382;5.270;2022-08-19T02:30:26;4.93;;;2.75;;
10061;SDS011;5070;52.382;5.270;2022-08-19T02:32:55;3.90;;;3.55;;
10061;SDS011;5070;52.382;5.270;2022-08-19T02:35:27;8.90;;;4.43;;
10061;SDS011;5070;52.382;5.270;2022-08-19T02:37:56;8.93;;;4.85;;
10061;SDS011;5070;52.382;5.270;2022-08-19T02:40:48;4.38;;;3.85;;
10061;SDS011;5070;52.382;5.270;2022-08-19T02:43:20;3.60;;;3.40;;
10061;SDS011;5070;52.382;5.270;2022-08-19T02:45:49;4.15;;;3.40;;
10061;SDS011;5070;52.382;5.270;2022-08-19T02:48:18;6.40;;;3.72;;
10061;SDS011;5070;52.382;5.270;2022-08-19T02:50:48;4.32;;;3.10;;
10061;SDS011;5070;52.382;5.270;2022-08-19T02:53:22;2.95;;;2.72;;
10061;SDS011;5070;52.382;5.270;2022-08-19T02:55:52;4.20;;;3.42;;
10061;SDS011;5070;52.382;5.270;2022-08-19T02:58:21;5.82;;;3.22;;
10061;SDS011;5070;52.382;5.270;2022-08-19T03:00:51;4.80;;;3.38;;
10061;SDS011;5070;52.382;5.270;2022-08-19T03:03:21;3.40;;;2.50;;
10061;SDS011;5070;52.382;5.270;2022-08-19T03:05:49;4.13;;;3.63;;
10061;SDS011;5070;52.382;5.270;2022-08-19T03:08:22;4.35;;;4.05;;
10061;SDS011;5070;52.382;5.270;2022-08-19T03:10:53;9.43;;;4.22;;
10061;SDS011;5070;52.382;5.270;2022-08-19T03:13:20;6.90;;;4.50;;
10061;SDS011;5070;52.382;5.270;2022-08-19T03:15:49;6.13;;;4.13;;
10061;SDS011;5070;52.382;5.270;2022-08-19T03:18:17;5.07;;;4.25;;
10061;SDS011;5070;52.382;5.270;2022-08-19T03:20:49;6.55;;;5.05;;
10061;SDS011;5070;52.382;5.270;2022-08-19T03:23:19;8.43;;;3.65;;
10061;SDS011;5070;52.382;5.270;2022-08-19T03:25:51;8.25;;;4.25;;
10061;SDS011;5070;52.382;5.270;2022-08-19T03:28:41;10.07;;;4.65;;
10061;SDS011;5070;52.382;5.270;2022-08-19T03:31:23;7.10;;;3.60;;
10061;SDS011;5070;52.382;5.270;2022-08-19T03:34:11;5.35;;;2.88;;
10061;SDS011;5070;52.382;5.270;2022-08-19T03:36:42;5.97;;;3.80;;
10061;SDS011;5070;52.382;5.270;2022-08-19T03:39:14;8.65;;;3.95;;
10061;SDS011;5070;52.382;5.270;2022-08-19T03:41:45;10.10;;;4.60;;
10061;SDS011;5070;52.382;5.270;2022-08-19T03:44:35;8.68;;;2.90;;
10061;SDS011;5070;52.382;5.270;2022-08-19T03:47:04;3.80;;;2.30;;
10061;SDS011;5070;52.382;5.270;2022-08-19T03:49:32;7.15;;;4.53;;
10061;SDS011;5070;52.382;5.270;2022-08-19T03:52:02;6.60;;;4.05;;
10061;SDS011;5070;52.382;5.270;2022-08-19T03:54:33;5.47;;;3.28;;
10061;SDS011;5070;52.382;5.270;2022-08-19T03:57:03;5.28;;;4.47;;
10061;SDS011;5070;52.382;5.270;2022-08-19T03:59:37;4.85;;;3.47;;
10061;SDS011;5070;52.382;5.270;2022-08-19T04:02:07;7.30;;;4.57;;
10061;SDS011;5070;52.382;5.270;2022-08-19T04:04:36;4.88;;;4.53;;
10061;SDS011;5070;52.382;5.270;2022-08-19T04:07:05;6.68;;;6.13;;
10061;SDS011;5070;52.382;5.270;2022-08-19T04:09:34;4.45;;;3.25;;
10061;SDS011;5070;52.382;5.270;2022-08-19T04:12:04;7.47;;;4.80;;
10061;SDS011;5070;52.382;5.270;2022-08-19T04:14:33;5.15;;;4.07;;
10061;SDS011;5070;52.382;5.270;2022-08-19T04:17:02;8.38;;;4.10;;
10061;SDS011;5070;52.382;5.270;2022-08-19T04:19:32;8.23;;;4.90;;
10061;SDS011;5070;52.382;5.270;2022-08-19T04:22:01;7.90;;;6.68;;
10061;SDS011;5070;52.382;5.270;2022-08-19T04:24:30;4.63;;;3.75;;
10061;SDS011;5070;52.382;5.270;2022-08-19T04:26:59;4.18;;;3.20;;
10061;SDS011;5070;52.382;5.270;2022-08-19T04:29:29;4.93;;;4.63;;
10061;SDS011;5070;52.382;5.270;2022-08-19T04:32:01;5.28;;;4.97;;
10061;SDS011;5070;52.382;5.270;2022-08-19T04:34:35;5.40;;;4.75;;
10061;SDS011;5070;52.382;5.270;2022-08-19T04:37:23;7.88;;;4.90;;
10061;SDS011;5070;52.382;5.270;2022-08-19T04:39:54;5.72;;;5.18;;
10061;SDS011;5070;52.382;5.270;2022-08-19T04:42:40;6.05;;;5.55;;
10061;SDS011;5070;52.382;5.270;2022-08-19T04:45:11;12.77;;;4.07;;
10061;SDS011;5070;52.382;5.270;2022-08-19T04:47:43;5.63;;;4.18;;
10061;SDS011;5070;52.382;5.270;2022-08-19T04:50:24;5.85;;;3.70;;
10061;SDS011;5070;52.382;5.270;2022-08-19T04:52:53;7.07;;;5.40;;
10061;SDS011;5070;52.382;5.270;2022-08-19T04:55:22;5.20;;;4.53;;
10061;SDS011;5070;52.382;5.270;2022-08-19T04:57:54;9.55;;;5.72;;
10061;SDS011;5070;52.382;5.270;2022-08-19T05:00:23;12.02;;;5.53;;
10061;SDS011;5070;52.382;5.270;2022-08-19T05:02:51;7.82;;;3.38;;
10061;SDS011;5070;52.382;5.270;2022-08-19T05:05:19;5.85;;;5.03;;
10061;SDS011;5070;52.382;5.270;2022-08-19T05:07:47;6.47;;;4.28;;
10061;SDS011;5070;52.382;5.270;2022-08-19T05:10:16;5.60;;;3.55;;
10061;SDS011;5070;52.382;5.270;2022-08-19T05:12:43;5.68;;;4.68;;
10061;SDS011;5070;52.382;5.270;2022-08-19T05:15:15;7.13;;;4.63;;
10061;SDS011;5070;52.382;5.270;2022-08-19T05:17:46;10.15;;;5.38;;
10061;SDS011;5070;52.382;5.270;2022-08-19T05:20:28;6.72;;;5.72;;
10061;SDS011;5070;52.382;5.270;2022-08-19T05:23:13;7.75;;;5.22;;
10061;SDS011;5070;52.382;5.270;2022-08-19T05:25:47;5.82;;;4.22;;
10061;SDS011;5070;52.382;5.270;2022-08-19T05:28:16;6.07;;;5.07;;
10061;SDS011;5070;52.382;5.270;2022-08-19T05:30:44;5.25;;;4.28;;
10061;SDS011;5070;52.382;5.270;2022-08-19T05:33:15;8.68;;;6.20;;
10061;SDS011;5070;52.382;5.270;2022-08-19T05:35:43;8.68;;;6.30;;
10061;SDS011;5070;52.382;5.270;2022-08-19T05:38:12;4.88;;;4.47;;
10061;SDS011;5070;52.382;5.270;2022-08-19T05:40:40;7.03;;;4.80;;
10061;SDS011;5070;52.382;5.270;2022-08-19T05:43:08;3.58;;;2.35;;
10061;SDS011;5070;52.382;5.270;2022-08-19T05:45:38;11.10;;;4.88;;
10061;SDS011;5070;52.382;5.270;2022-08-19T05:48:09;7.30;;;5.30;;
10061;SDS011;5070;52.382;5.270;2022-08-19T05:50:40;7.00;;;4.40;;
10061;SDS011;5070;52.382;5.270;2022-08-19T05:53:11;6.82;;;5.10;;
10061;SDS011;5070;52.382;5.270;2022-08-19T05:55:42;13.50;;;8.60;;
10061;SDS011;5070;52.382;5.270;2022-08-19T05:58:10;11.48;;;6.38;;
10061;SDS011;5070;52.382;5.270;2022-08-19T06:00:38;18.20;;;7.10;;
10061;SDS011;5070;52.382;5.270;2022-08-19T06:03:06;13.93;;;8.23;;
10061;SDS011;5070;52.382;5.270;2022-08-19T06:05:40;12.80;;;6.35;;
10061;SDS011;5070;52.382;5.270;2022-08-19T06:08:17;8.82;;;7.22;;
10061;SDS011;5070;52.382;5.270;2022-08-19T06:11:12;13.57;;;7.22;;
10061;SDS011;5070;52.382;5.270;2022-08-19T06:13:44;9.68;;;7.07;;
10061;SDS011;5070;52.382;5.270;2022-08-19T06:16:16;10.93;;;6.80;;
10061;SDS011;5070;52.382;5.270;2022-08-19T06:18:49;17.58;;;11.02;;
10061;SDS011;5070;52.382;5.270;2022-08-19T06:21:20;12.38;;;9.48;;
10061;SDS011;5070;52.382;5.270;2022-08-19T06:23:50;19.27;;;10.35;;
10061;SDS011;5070;52.382;5.270;2022-08-19T06:26:20;16.52;;;9.57;;
10061;SDS011;5070;52.382;5.270;2022-08-19T06:28:49;13.10;;;7.28;;
10061;SDS011;5070;52.382;5.270;2022-08-19T06:31:19;19.73;;;9.93;;
10061;SDS011;5070;52.382;5.270;2022-08-19T06:33:51;13.75;;;8.80;;
10061;SDS011;5070;52.382;5.270;2022-08-19T06:36:23;10.25;;;9.75;;
10061;SDS011;5070;52.382;5.270;2022-08-19T06:38:57;18.55;;;11.45;;
10061;SDS011;5070;52.382;5.270;2022-08-19T06:41:28;11.20;;;10.32;;
10061;SDS011;5070;52.382;5.270;2022-08-19T06:43:57;9.15;;;7.90;;
10061;SDS011;5070;52.382;5.270;2022-08-19T06:46:28;12.07;;;11.48;;
10061;SDS011;5070;52.382;5.270;2022-08-19T06:49:00;21.67;;;13.68;;
10061;SDS011;5070;52.382;5.270;2022-08-19T06:51:32;22.30;;;12.65;;
10061;SDS011;5070;52.382;5.270;2022-08-19T06:54:08;12.52;;;11.00;;
10061;SDS011;5070;52.382;5.270;2022-08-19T06:56:45;21.83;;;15.27;;
10061;SDS011;5070;52.382;5.270;2022-08-19T06:59:14;16.90;;;13.38;;
10061;SDS011;5070;52.382;5.270;2022-08-19T07:01:44;16.45;;;15.55;;
10061;SDS011;5070;52.382;5.270;2022-08-19T07:04:14;27.27;;;13.27;;
10061;SDS011;5070;52.382;5.270;2022-08-19T07:06:47;22.65;;;16.35;;
10061;SDS011;5070;52.382;5.270;2022-08-19T07:09:20;19.83;;;15.93;;
10061;SDS011;5070;52.382;5.270;2022-08-19T07:11:50;22.30;;;14.45;;
10061;SDS011;5070;52.382;5.270;2022-08-19T07:14:21;28.10;;;17.67;;
10061;SDS011;5070;52.382;5.270;2022-08-19T07:16:52;29.30;;;16.20;;
10061;SDS011;5070;52.382;5.270;2022-08-19T07:19:22;31.08;;;17.88;;
10061;SDS011;5070;52.382;5.270;2022-08-19T07:21:55;33.00;;;16.75;;
10061;SDS011;5070;52.382;5.270;2022-08-19T07:24:24;14.20;;;13.38;;
10061;SDS011;5070;52.382;5.270;2022-08-19T07:26:59;15.05;;;14.18;;
10061;SDS011;5070;52.382;5.270;2022-08-19T07:29:40;21.88;;;15.32;;
10061;SDS011;5070;52.382;5.270;2022-08-19T07:32:09;26.98;;;16.77;;
10061;SDS011;5070;52.382;5.270;2022-08-19T07:34:38;36.33;;;19.70;;
10061;SDS011;5070;52.382;5.270;2022-08-19T07:37:09;32.83;;;20.70;;
10061;SDS011;5070;52.382;5.270;2022-08-19T07:39:42;36.42;;;20.65;;
10061;SDS011;5070;52.382;5.270;2022-08-19T07:42:10;34.47;;;18.88;;
10061;SDS011;5070;52.382;5.270;2022-08-19T07:44:47;40.83;;;21.73;;
10061;SDS011;5070;52.382;5.270;2022-08-19T07:47:16;17.80;;;16.50;;
10061;SDS011;5070;52.382;5.270;2022-08-19T07:50:05;28.25;;;18.05;;
10061;SDS011;5070;52.382;5.270;2022-08-19T07:52:37;29.13;;;15.98;;
10061;SDS011;5070;52.382;5.270;2022-08-19T07:55:06;22.33;;;17.60;;
10061;SDS011;5070;52.382;5.270;2022-08-19T07:57:56;30.42;;;19.85;;
10061;SDS011;5070;52.382;5.270;2022-08-19T08:00:25;33.40;;;16.63;;
10061;SDS011;5070;52.382;5.270;2022-08-19T08:02:53;14.65;;;13.90;;
10061;SDS011;5070;52.382;5.270;2022-08-19T08:05:21;28.02;;;13.63;;
10061;SDS011;5070;52.382;5.270;2022-08-19T08:08:10;19.00;;;16.67;;
10061;SDS011;5070;52.382;5.270;2022-08-19T08:10:56;17.17;;;16.33;;
10061;SDS011;5070;52.382;5.270;2022-08-19T08:13:24;32.00;;;15.80;;
10061;SDS011;5070;52.382;5.270;2022-08-19T08:15:54;23.65;;;19.38;;
10061;SDS011;5070;52.382;5.270;2022-08-19T08:18:22;30.80;;;16.52;;
10061;SDS011;5070;52.382;5.270;2022-08-19T08:20:53;39.28;;;17.80;;
10061;SDS011;5070;52.382;5.270;2022-08-19T08:23:23;24.95;;;16.45;;
10061;SDS011;5070;52.382;5.270;2022-08-19T08:25:53;26.90;;;17.80;;
10061;SDS011;5070;52.382;5.270;2022-08-19T08:28:23;33.47;;;20.00;;
10061;SDS011;5070;52.382;5.270;2022-08-19T08:30:55;28.63;;;18.30;;
10061;SDS011;5070;52.382;5.270;2022-08-19T08:33:25;19.48;;;17.27;;
10061;SDS011;5070;52.382;5.270;2022-08-19T08:36:00;38.90;;;15.52;;
10061;SDS011;5070;52.382;5.270;2022-08-19T08:38:31;26.10;;;19.10;;
10061;SDS011;5070;52.382;5.270;2022-08-19T08:41:07;19.83;;;18.83;;
10061;SDS011;5070;52.382;5.270;2022-08-19T08:43:46;31.67;;;13.98;;
10061;SDS011;5070;52.382;5.270;2022-08-19T08:46:18;28.55;;;20.10;;
10061;SDS011;5070;52.382;5.270;2022-08-19T08:48:58;24.52;;;17.73;;
10061;SDS011;5070;52.382;5.270;2022-08-19T08:51:32;24.98;;;16.10;;
10061;SDS011;5070;52.382;5.270;2022-08-19T08:54:06;24.20;;;18.00;;
10061;SDS011;5070;52.382;5.270;2022-08-19T08:56:38;19.35;;;15.70;;
10061;SDS011;5070;52.382;5.270;2022-08-19T08:59:07;23.90;;;17.95;;
10061;SDS011;5070;52.382;5.270;2022-08-19T09:01:43;25.05;;;14.07;;
10061;SDS011;5070;52.382;5.270;2022-08-19T09:04:12;29.58;;;17.55;;
10061;SDS011;5070;52.382;5.270;2022-08-19T09:06:43;19.95;;;18.00;;
10061;SDS011;5070;52.382;5.270;2022-08-19T09:09:20;21.92;;;18.60;;
10061;SDS011;5070;52.382;5.270;2022-08-19T09:11:59;29.27;;;22.58;;
10061;SDS011;5070;52.382;5.270;2022-08-19T09:14:39;25.38;;;18.48;;
10061;SDS011;5070;52.382;5.270;2022-08-19T09:17:17;29.30;;;19.05;;
10061;SDS011;5070;52.382;5.270;2022-08-19T09:19:51;24.05;;;15.32;;
10061;SDS011;5070;52.382;5.270;2022-08-19T09:22:23;29.30;;;15.07;;
10061;SDS011;5070;52.382;5.270;2022-08-19T09:24:55;20.63;;;16.63;;
10061;SDS011;5070;52.382;5.270;2022-08-19T09:27:26;18.70;;;14.88;;
10061;SDS011;5070;52.382;5.270;2022-08-19T09:30:10;19.70;;;15.82;;
10061;SDS011;5070;52.382;5.270;2022-08-19T09:32:41;25.17;;;13.27;;
10061;SDS011;5070;52.382;5.270;2022-08-19T09:35:11;28.52;;;17.73;;
10061;SDS011;5070;52.382;5.270;2022-08-19T09:37:41;17.77;;;16.80;;
10061;SDS011;5070;52.382;5.270;2022-08-19T09:40:11;17.45;;;14.38;;
10061;SDS011;5070;52.382;5.270;2022-08-19T09:42:41;19.17;;;12.45;;
10061;SDS011;5070;52.382;5.270;2022-08-19T09:45:16;20.55;;;12.13;;
10061;SDS011;5070;52.382;5.270;2022-08-19T09:47:47;16.40;;;12.48;;
10061;SDS011;5070;52.382;5.270;2022-08-19T09:50:19;17.05;;;13.10;;
10061;SDS011;5070;52.382;5.270;2022-08-19T09:52:49;15.23;;;12.45;;
10061;SDS011;5070;52.382;5.270;2022-08-19T09:55:26;17.27;;;11.10;;
10061;SDS011;5070;52.382;5.270;2022-08-19T09:57:58;16.98;;;12.57;;
10061;SDS011;5070;52.382;5.270;2022-08-19T10:00:27;15.13;;;11.95;;
10061;SDS011;5070;52.382;5.270;2022-08-19T10:02:56;28.40;;;16.58;;
10061;SDS011;5070;52.382;5.270;2022-08-19T10:05:24;13.68;;;12.98;;
10061;SDS011;5070;52.382;5.270;2022-08-19T10:08:13;17.55;;;12.30;;
10061;SDS011;5070;52.382;5.270;2022-08-19T10:10:47;16.67;;;12.85;;
10061;SDS011;5070;52.382;5.270;2022-08-19T10:13:17;29.70;;;13.02;;
10061;SDS011;5070;52.382;5.270;2022-08-19T10:15:51;18.02;;;14.02;;
10061;SDS011;5070;52.382;5.270;2022-08-19T10:18:21;18.30;;;12.82;;
10061;SDS011;5070;52.382;5.270;2022-08-19T10:20:50;11.98;;;11.38;;
10061;SDS011;5070;52.382;5.270;2022-08-19T10:23:21;15.70;;;12.85;;
10061;SDS011;5070;52.382;5.270;2022-08-19T10:26:02;30.35;;;16.80;;
10061;SDS011;5070;52.382;5.270;2022-08-19T10:28:32;18.67;;;12.85;;
10061;SDS011;5070;52.382;5.270;2022-08-19T10:31:05;13.70;;;11.32;;
10061;SDS011;5070;52.382;5.270;2022-08-19T10:33:33;19.15;;;12.70;;
10061;SDS011;5070;52.382;5.270;2022-08-19T10:36:20;23.25;;;13.77;;
10061;SDS011;5070;52.382;5.270;2022-08-19T10:38:53;20.55;;;14.90;;
10061;SDS011;5070;52.382;5.270;2022-08-19T10:41:30;24.77;;;13.80;;
10061;SDS011;5070;52.382;5.270;2022-08-19T10:44:04;28.33;;;12.88;;
10061;SDS011;5070;52.382;5.270;2022-08-19T10:46:35;26.38;;;18.85;;
10061;SDS011;5070;52.382;5.270;2022-08-19T10:49:05;15.70;;;13.93;;
10061;SDS011;5070;52.382;5.270;2022-08-19T10:51:33;34.70;;;20.25;;
10061;SDS011;5070;52.382;5.270;2022-08-19T10:54:19;30.83;;;19.80;;
10061;SDS011;5070;52.382;5.270;2022-08-19T10:57:00;28.98;;;18.00;;
10061;SDS011;5070;52.382;5.270;2022-08-19T10:59:29;32.42;;;17.40;;
10061;SDS011;5070;52.382;5.270;2022-08-19T11:02:01;19.27;;;13.00;;
10061;SDS011;5070;52.382;5.270;2022-08-19T11:04:45;29.58;;;20.48;;
10061;SDS011;5070;52.382;5.270;2022-08-19T11:07:19;34.42;;;18.10;;
10061;SDS011;5070;52.382;5.270;2022-08-19T11:09:47;28.95;;;15.85;;
10061;SDS011;5070;52.382;5.270;2022-08-19T11:12:23;23.85;;;21.10;;
10061;SDS011;5070;52.382;5.270;2022-08-19T11:14:56;25.67;;;17.75;;
10061;SDS011;5070;52.382;5.270;2022-08-19T11:17:25;17.42;;;16.52;;
10061;SDS011;5070;52.382;5.270;2022-08-19T11:19:55;22.50;;;15.65;;
10061;SDS011;5070;52.382;5.270;2022-08-19T11:22:23;19.05;;;13.77;;
10061;SDS011;5070;52.382;5.270;2022-08-19T11:25:07;35.40;;;17.98;;
10061;SDS011;5070;52.382;5.270;2022-08-19T11:27:40;20.30;;;16.27;;
10061;SDS011;5070;52.382;5.270;2022-08-19T11:30:10;16.67;;;15.00;;
10061;SDS011;5070;52.382;5.270;2022-08-19T11:32:51;32.83;;;18.50;;
10061;SDS011;5070;52.382;5.270;2022-08-19T11:35:19;15.75;;;13.52;;
10061;SDS011;5070;52.382;5.270;2022-08-19T11:37:49;18.77;;;13.10;;
10061;SDS011;5070;52.382;5.270;2022-08-19T11:40:17;19.92;;;13.95;;
10061;SDS011;5070;52.382;5.270;2022-08-19T11:42:53;17.98;;;12.10;;
10061;SDS011;5070;52.382;5.270;2022-08-19T11:45:22;20.63;;;15.27;;
10061;SDS011;5070;52.382;5.270;2022-08-19T11:47:53;17.55;;;12.43;;
10061;SDS011;5070;52.382;5.270;2022-08-19T11:50:22;12.27;;;9.60;;
10061;SDS011;5070;52.382;5.270;2022-08-19T11:52:56;12.40;;;10.85;;
10061;SDS011;5070;52.382;5.270;2022-08-19T11:55:24;10.38;;;9.68;;
10061;SDS011;5070;52.382;5.270;2022-08-19T11:57:53;12.48;;;7.68;;
10061;SDS011;5070;52.382;5.270;2022-08-19T12:00:24;12.48;;;9.77;;
10061;SDS011;5070;52.382;5.270;2022-08-19T12:02:52;13.52;;;8.05;;
10061;SDS011;5070;52.382;5.270;2022-08-19T12:05:20;10.85;;;5.32;;
10061;SDS011;5070;52.382;5.270;2022-08-19T12:07:51;13.38;;;9.55;;
10061;SDS011;5070;52.382;5.270;2022-08-19T12:10:20;8.95;;;6.13;;
10061;SDS011;5070;52.382;5.270;2022-08-19T12:12:51;7.35;;;6.60;;
10061;SDS011;5070;52.382;5.270;2022-08-19T12:15:27;11.27;;;7.45;;
10061;SDS011;5070;52.382;5.270;2022-08-19T12:18:06;11.20;;;7.40;;
10061;SDS011;5070;52.382;5.270;2022-08-19T12:20:36;8.35;;;6.72;;
10061;SDS011;5070;52.382;5.270;2022-08-19T12:23:09;8.50;;;5.90;;
10061;SDS011;5070;52.382;5.270;2022-08-19T12:25:37;8.35;;;6.38;;
10061;SDS011;5070;52.382;5.270;2022-08-19T12:28:19;17.67;;;6.50;;
10061;SDS011;5070;52.382;5.270;2022-08-19T12:30:49;8.63;;;6.05;;
10061;SDS011;5070;52.382;5.270;2022-08-19T12:33:20;6.60;;;4.82;;
10061;SDS011;5070;52.382;5.270;2022-08-19T12:35:51;13.15;;;5.28;;
10061;SDS011;5070;52.382;5.270;2022-08-19T12:38:20;6.55;;;5.00;;
10061;SDS011;5070;52.382;5.270;2022-08-19T12:40:50;5.65;;;4.97;;
10061;SDS011;5070;52.382;5.270;2022-08-19T12:43:26;7.10;;;4.85;;
10061;SDS011;5070;52.382;5.270;2022-08-19T12:45:55;5.32;;;4.40;;
10061;SDS011;5070;52.382;5.270;2022-08-19T12:48:23;5.15;;;4.75;;
10061;SDS011;5070;52.382;5.270;2022-08-19T12:51:00;4.75;;;4.47;;
10061;SDS011;5070;52.382;5.270;2022-08-19T12:53:33;8.63;;;5.22;;
10061;SDS011;5070;52.382;5.270;2022-08-19T12:56:05;8.32;;;4.90;;
10061;SDS011;5070;52.382;5.270;2022-08-19T12:58:39;8.02;;;4.47;;
10061;SDS011;5070;52.382;5.270;2022-08-19T13:01:16;4.80;;;3.45;;
10061;SDS011;5070;52.382;5.270;2022-08-19T13:03:48;6.40;;;3.28;;
10061;SDS011;5070;52.382;5.270;2022-08-19T13:06:18;6.03;;;3.00;;
10061;SDS011;5070;52.382;5.270;2022-08-19T13:08:46;2.92;;;2.63;;
10061;SDS011;5070;52.382;5.270;2022-08-19T13:11:14;5.05;;;3.38;;
10061;SDS011;5070;52.382;5.270;2022-08-19T13:13:48;5.38;;;3.40;;
10061;SDS011;5070;52.382;5.270;2022-08-19T13:16:20;4.15;;;2.63;;
10061;SDS011;5070;52.382;5.270;2022-08-19T13:18:48;10.32;;;5.20;;
10061;SDS011;5070;52.382;5.270;2022-08-19T13:21:18;9.85;;;4.47;;
10061;SDS011;5070;52.382;5.270;2022-08-19T13:23:48;7.05;;;3.30;;
10061;SDS011;5070;52.382;5.270;2022-08-19T13:26:19;5.78;;;4.65;;
10061;SDS011;5070;52.382;5.270;2022-08-19T13:28:52;11.35;;;5.38;;
10061;SDS011;5070;52.382;5.270;2022-08-19T13:31:39;7.43;;;4.88;;
10061;SDS011;5070;52.382;5.270;2022-08-19T13:34:29;7.03;;;5.07;;
10061;SDS011;5070;52.382;5.270;2022-08-19T13:37:02;12.90;;;4.88;;
10061;SDS011;5070;52.382;5.270;2022-08-19T13:39:32;3.67;;;2.92;;
10061;SDS011;5070;52.382;5.270;2022-08-19T13:42:08;4.15;;;2.78;;
10061;SDS011;5070;52.382;5.270;2022-08-19T13:44:43;14.25;;;5.45;;
10061;SDS011;5070;52.382;5.270;2022-08-19T13:47:15;5.30;;;4.40;;
10061;SDS011;5070;52.382;5.270;2022-08-19T13:49:43;10.35;;;4.15;;
10061;SDS011;5070;52.382;5.270;2022-08-19T13:52:12;12.98;;;3.90;;
10061;SDS011;5070;52.382;5.270;2022-08-19T13:54:40;8.30;;;5.20;;
10061;SDS011;5070;52.382;5.270;2022-08-19T13:57:12;8.65;;;5.90;;
10061;SDS011;5070;52.382;5.270;2022-08-19T13:59:41;5.20;;;2.85;;
10061;SDS011;5070;52.382;5.270;2022-08-19T14:02:10;9.20;;;3.97;;
10061;SDS011;5070;52.382;5.270;2022-08-19T14:04:38;3.25;;;3.10;;
10061;SDS011;5070;52.382;5.270;2022-08-19T14:07:09;3.30;;;3.03;;
10061;SDS011;5070;52.382;5.270;2022-08-19T14:09:37;5.00;;;3.33;;
10061;SDS011;5070;52.382;5.270;2022-08-19T14:12:05;11.95;;;4.20;;
10061;SDS011;5070;52.382;5.270;2022-08-19T14:14:38;3.95;;;3.47;;
10061;SDS011;5070;52.382;5.270;2022-08-19T14:17:12;4.38;;;3.65;;
10061;SDS011;5070;52.382;5.270;2022-08-19T14:19:42;3.47;;;3.28;;
10061;SDS011;5070;52.382;5.270;2022-08-19T14:22:13;4.55;;;3.22;;
10061;SDS011;5070;52.382;5.270;2022-08-19T14:24:47;7.38;;;6.00;;
10061;SDS011;5070;52.382;5.270;2022-08-19T14:27:16;5.28;;;3.72;;
10061;SDS011;5070;52.382;5.270;2022-08-19T14:29:44;4.80;;;4.07;;
10061;SDS011;5070;52.382;5.270;2022-08-19T14:32:15;3.83;;;3.25;;
10061;SDS011;5070;52.382;5.270;2022-08-19T14:34:43;4.68;;;2.70;;
10061;SDS011;5070;52.382;5.270;2022-08-19T14:37:12;8.18;;;4.63;;
10061;SDS011;5070;52.382;5.270;2022-08-19T14:39:41;3.50;;;3.17;;
10061;SDS011;5070;52.382;5.270;2022-08-19T14:42:11;3.95;;;2.63;;
10061;SDS011;5070;52.382;5.270;2022-08-19T14:44:43;5.07;;;3.38;;
10061;SDS011;5070;52.382;5.270;2022-08-19T14:47:11;3.58;;;2.22;;
10061;SDS011;5070;52.382;5.270;2022-08-19T14:49:41;6.65;;;4.43;;
10061;SDS011;5070;52.382;5.270;2022-08-19T14:52:13;3.35;;;2.20;;
10061;SDS011;5070;52.382;5.270;2022-08-19T14:54:42;3.17;;;2.97;;
10061;SDS011;5070;52.382;5.270;2022-08-19T14:57:11;2.65;;;2.30;;
10061;SDS011;5070;52.382;5.270;2022-08-19T14:59:45;3.30;;;1.65;;
10061;SDS011;5070;52.382;5.270;2022-08-19T15:02:13;2.45;;;2.35;;
10061;SDS011;5070;52.382;5.270;2022-08-19T15:05:01;2.63;;;2.08;;
10061;SDS011;5070;52.382;5.270;2022-08-19T15:07:29;3.03;;;1.77;;
10061;SDS011;5070;52.382;5.270;2022-08-19T15:09:57;3.08;;;2.60;;
10061;SDS011;5070;52.382;5.270;2022-08-19T15:12:25;4.47;;;2.10;;
10061;SDS011;5070;52.382;5.270;2022-08-19T15:14:59;2.17;;;1.75;;
10061;SDS011;5070;52.382;5.270;2022-08-19T15:17:28;7.85;;;2.80;;
10061;SDS011;5070;52.382;5.270;2022-08-19T15:20:14;2.50;;;1.58;;